sensor_id;sensor_type;location;lat;lon;timestamp;pressure;altitude;pressure_sealevel;temperature;humidity
77149;BME280;66122;47.130;16.844;2023-05-10T00:06:16;99754.72;;;7.22;97.03
77149;BME280;66122;47.130;16.844;2023-05-10T00:16:19;99747.53;;;7.47;94.20
77149;BME280;66122;47.130;16.844;2023-05-10T00:26:21;99747.00;;;7.39;94.07
77149;BME280;66122;47.130;16.844;2023-05-10T00:36:27;99731.28;;;6.71;100.00
77149;BME280;66122;47.130;16.844;2023-05-10T00:46:30;99725.81;;;6.77;96.96
77149;BME280;66122;47.130;16.844;2023-05-10T00:56:33;99718.81;;;6.76;93.24
77149;BME280;66122;47.130;16.844;2023-05-10T01:06:36;99715.50;;;6.92;93.18
77149;BME280;66122;47.130;16.844;2023-05-10T01:16:40;99708.63;;;6.66;93.92
77149;BME280;66122;47.130;16.844;2023-05-10T01:37:19;99693.03;;;6.39;95.25
77149;BME280;66122;47.130;16.844;2023-05-10T01:47:41;99686.41;;;6.28;95.34
77149;BME280;66122;47.130;16.844;2023-05-10T01:57:46;99683.09;;;6.23;94.62
77149;BME280;66122;47.130;16.844;2023-05-10T02:07:52;99682.06;;;6.04;98.26
77149;BME280;66122;47.130;16.844;2023-05-10T02:17:56;99688.09;;;6.06;96.41
77149;BME280;66122;47.130;16.844;2023-05-10T02:28:02;99681.91;;;6.32;94.49
77149;BME280;66122;47.130;16.844;2023-05-10T02:38:06;99687.66;;;5.95;94.69
77149;BME280;66122;47.130;16.844;2023-05-10T02:48:09;99681.47;;;5.20;99.45
77149;BME280;66122;47.130;16.844;2023-05-10T02:58:12;99687.91;;;5.38;100.00
77149;BME280;66122;47.130;16.844;2023-05-10T03:08:14;99674.22;;;5.78;95.87
77149;BME280;66122;47.130;16.844;2023-05-10T03:18:29;99680.53;;;5.23;97.38
77149;BME280;66122;47.130;16.844;2023-05-10T03:28:37;99684.78;;;5.52;97.65
77149;BME280;66122;47.130;16.844;2023-05-10T03:38:41;99684.94;;;5.22;97.81
77149;BME280;66122;47.130;16.844;2023-05-10T03:48:44;99673.31;;;5.79;98.94
77149;BME280;66122;47.130;16.844;2023-05-10T03:58:46;99674.63;;;6.15;95.32
77149;BME280;66122;47.130;16.844;2023-05-10T04:08:49;99685.81;;;6.44;96.26
77149;BME280;66122;47.130;16.844;2023-05-10T04:18:52;99683.88;;;6.92;94.96
77149;BME280;66122;47.130;16.844;2023-05-10T04:28:55;99696.69;;;6.35;100.00
77149;BME280;66122;47.130;16.844;2023-05-10T04:38:58;99693.34;;;7.60;96.31
77149;BME280;66122;47.130;16.844;2023-05-10T04:49:00;99706.31;;;8.44;92.50
77149;BME280;66122;47.130;16.844;2023-05-10T04:59:03;99695.66;;;9.36;89.27
77149;BME280;66122;47.130;16.844;2023-05-10T05:09:06;99711.38;;;10.26;90.12
77149;BME280;66122;47.130;16.844;2023-05-10T05:19:08;99716.56;;;11.23;86.38
77149;BME280;66122;47.130;16.844;2023-05-10T05:29:11;99719.50;;;11.48;84.79
77149;BME280;66122;47.130;16.844;2023-05-10T05:39:15;99715.06;;;11.79;81.18
77149;BME280;66122;47.130;16.844;2023-05-10T05:49:18;99713.81;;;12.28;80.74
77149;BME280;66122;47.130;16.844;2023-05-10T05:59:21;99715.66;;;12.69;78.42
77149;BME280;66122;47.130;16.844;2023-05-10T06:09:24;99723.53;;;12.84;77.62
77149;BME280;66122;47.130;16.844;2023-05-10T06:19:26;99737.16;;;12.66;77.47
77149;BME280;66122;47.130;16.844;2023-05-10T06:29:29;99735.91;;;13.12;76.58
77149;BME280;66122;47.130;16.844;2023-05-10T06:39:32;99731.44;;;13.54;73.58
77149;BME280;66122;47.130;16.844;2023-05-10T06:49:34;99739.38;;;13.68;74.51
77149;BME280;66122;47.130;16.844;2023-05-10T06:59:37;99733.94;;;14.47;72.14
77149;BME280;66122;47.130;16.844;2023-05-10T07:09:40;99744.66;;;14.83;71.36
77149;BME280;66122;47.130;16.844;2023-05-10T07:19:42;99729.34;;;14.85;73.48
77149;BME280;66122;47.130;16.844;2023-05-10T07:29:45;99716.50;;;15.51;68.58
77149;BME280;66122;47.130;16.844;2023-05-10T07:39:48;99710.59;;;15.82;65.45
77149;BME280;66122;47.130;16.844;2023-05-10T07:49:50;99717.81;;;15.21;68.17
77149;BME280;66122;47.130;16.844;2023-05-10T07:59:53;99723.28;;;15.44;65.14
77149;BME280;66122;47.130;16.844;2023-05-10T08:09:55;99723.19;;;16.04;62.46
77149;BME280;66122;47.130;16.844;2023-05-10T08:19:58;99720.09;;;16.88;59.74
77149;BME280;66122;47.130;16.844;2023-05-10T08:30:00;99726.19;;;16.90;60.18
77149;BME280;66122;47.130;16.844;2023-05-10T08:40:03;99726.78;;;16.83;59.87
77149;BME280;66122;47.130;16.844;2023-05-10T08:50:06;99708.66;;;16.42;57.94
77149;BME280;66122;47.130;16.844;2023-05-10T09:00:10;99700.84;;;17.05;56.46
77149;BME280;66122;47.130;16.844;2023-05-10T09:10:14;99696.47;;;17.36;56.09
77149;BME280;66122;47.130;16.844;2023-05-10T09:20:17;99698.13;;;18.52;53.36
77149;BME280;66122;47.130;16.844;2023-05-10T09:30:25;99687.72;;;16.91;56.21
77149;BME280;66122;47.130;16.844;2023-05-10T09:40:29;99682.53;;;18.57;52.27
77149;BME280;66122;47.130;16.844;2023-05-10T09:50:32;99681.47;;;17.98;51.61
77149;BME280;66122;47.130;16.844;2023-05-10T10:00:38;99678.88;;;17.86;53.55
77149;BME280;66122;47.130;16.844;2023-05-10T10:10:41;99672.13;;;18.13;53.65
77149;BME280;66122;47.130;16.844;2023-05-10T10:20:47;99674.00;;;18.22;51.26
77149;BME280;66122;47.130;16.844;2023-05-10T10:30:51;99658.19;;;18.99;52.19
77149;BME280;66122;47.130;16.844;2023-05-10T10:41:09;99652.63;;;18.81;50.38
77149;BME280;66122;47.130;16.844;2023-05-10T10:51:13;99650.34;;;19.65;50.12
77149;BME280;66122;47.130;16.844;2023-05-10T11:01:18;99643.13;;;18.67;49.65
77149;BME280;66122;47.130;16.844;2023-05-10T11:11:20;99636.78;;;18.38;53.34
77149;BME280;66122;47.130;16.844;2023-05-10T11:21:24;99628.53;;;19.87;47.30
77149;BME280;66122;47.130;16.844;2023-05-10T11:31:27;99625.13;;;19.85;47.80
77149;BME280;66122;47.130;16.844;2023-05-10T11:41:31;99626.09;;;19.17;48.45
77149;BME280;66122;47.130;16.844;2023-05-10T11:51:34;99606.09;;;19.96;47.59
77149;BME280;66122;47.130;16.844;2023-05-10T12:01:41;99610.44;;;20.53;46.02
77149;BME280;66122;47.130;16.844;2023-05-10T12:11:44;99608.16;;;19.36;47.55
77149;BME280;66122;47.130;16.844;2023-05-10T12:21:47;99606.72;;;20.64;44.02
77149;BME280;66122;47.130;16.844;2023-05-10T12:41:53;99583.59;;;20.44;42.70
77149;BME280;66122;47.130;16.844;2023-05-10T12:51:55;99582.56;;;20.90;41.62
77149;BME280;66122;47.130;16.844;2023-05-10T13:01:57;99568.66;;;20.94;43.27
77149;BME280;66122;47.130;16.844;2023-05-10T13:12:00;99565.41;;;20.91;41.36
77149;BME280;66122;47.130;16.844;2023-05-10T13:22:03;99549.59;;;21.23;42.90
77149;BME280;66122;47.130;16.844;2023-05-10T13:32:06;99558.38;;;18.84;45.29
77149;BME280;66122;47.130;16.844;2023-05-10T13:42:08;99544.47;;;20.85;42.57
77149;BME280;66122;47.130;16.844;2023-05-10T13:52:11;99539.56;;;18.75;47.21
77149;BME280;66122;47.130;16.844;2023-05-10T14:02:14;99520.34;;;19.18;45.70
77149;BME280;66122;47.130;16.844;2023-05-10T14:12:16;99515.00;;;22.30;39.78
77149;BME280;66122;47.130;16.844;2023-05-10T14:22:19;99519.06;;;20.70;42.12
77149;BME280;66122;47.130;16.844;2023-05-10T14:32:21;99520.28;;;20.57;41.61
77149;BME280;66122;47.130;16.844;2023-05-10T14:42:24;99508.97;;;19.62;43.27
77149;BME280;66122;47.130;16.844;2023-05-10T14:52:26;99504.72;;;20.34;40.33
77149;BME280;66122;47.130;16.844;2023-05-10T15:02:30;99503.28;;;21.10;40.33
77149;BME280;66122;47.130;16.844;2023-05-10T15:12:33;99507.19;;;18.95;45.12
77149;BME280;66122;47.130;16.844;2023-05-10T15:22:36;99503.53;;;18.67;47.07
77149;BME280;66122;47.130;16.844;2023-05-10T15:32:39;99508.59;;;18.51;43.93
77149;BME280;66122;47.130;16.844;2023-05-10T15:42:42;99500.88;;;18.18;45.70
77149;BME280;66122;47.130;16.844;2023-05-10T15:52:45;99506.78;;;18.12;47.46
77149;BME280;66122;47.130;16.844;2023-05-10T16:02:47;99500.78;;;17.89;48.00
77149;BME280;66122;47.130;16.844;2023-05-10T16:12:50;99498.13;;;17.99;48.25
77149;BME280;66122;47.130;16.844;2023-05-10T16:22:53;99504.19;;;18.50;47.23
77149;BME280;66122;47.130;16.844;2023-05-10T16:32:56;99503.56;;;18.18;48.29
77149;BME280;66122;47.130;16.844;2023-05-10T16:42:59;99497.91;;;17.71;48.15
77149;BME280;66122;47.130;16.844;2023-05-10T16:53:01;99494.88;;;17.44;48.99
77149;BME280;66122;47.130;16.844;2023-05-10T17:03:04;99511.97;;;17.43;48.31
77149;BME280;66122;47.130;16.844;2023-05-10T17:13:07;99524.63;;;17.20;49.70
77149;BME280;66122;47.130;16.844;2023-05-10T17:23:11;99528.50;;;17.06;50.95
77149;BME280;66122;47.130;16.844;2023-05-10T17:33:14;99527.41;;;16.77;51.96
77149;BME280;66122;47.130;16.844;2023-05-10T17:43:17;99532.53;;;16.58;53.14
77149;BME280;66122;47.130;16.844;2023-05-10T17:53:19;99529.91;;;16.35;54.24
77149;BME280;66122;47.130;16.844;2023-05-10T18:03:22;99531.91;;;16.11;55.17
77149;BME280;66122;47.130;16.844;2023-05-10T18:13:25;99544.06;;;15.82;57.12
77149;BME280;66122;47.130;16.844;2023-05-10T18:23:27;99545.03;;;15.23;60.82
77149;BME280;66122;47.130;16.844;2023-05-10T18:33:30;99553.88;;;15.24;60.86
77149;BME280;66122;47.130;16.844;2023-05-10T18:43:32;99574.00;;;15.17;60.05
77149;BME280;66122;47.130;16.844;2023-05-10T18:53:36;99573.38;;;15.13;60.88
77149;BME280;66122;47.130;16.844;2023-05-10T19:03:38;99601.06;;;14.89;63.58
77149;BME280;66122;47.130;16.844;2023-05-10T19:13:41;99603.25;;;14.83;62.18
77149;BME280;66122;47.130;16.844;2023-05-10T19:23:44;99599.31;;;14.76;62.63
77149;BME280;66122;47.130;16.844;2023-05-10T19:33:47;99618.88;;;14.64;62.54
77149;BME280;66122;47.130;16.844;2023-05-10T19:43:50;99617.09;;;14.52;63.56
77149;BME280;66122;47.130;16.844;2023-05-10T19:53:54;99616.59;;;14.47;63.70
77149;BME280;66122;47.130;16.844;2023-05-10T20:03:56;99617.00;;;14.41;64.20
77149;BME280;66122;47.130;16.844;2023-05-10T20:13:59;99621.69;;;14.37;65.70
77149;BME280;66122;47.130;16.844;2023-05-10T20:24:01;99628.84;;;14.37;65.74
77149;BME280;66122;47.130;16.844;2023-05-10T20:34:04;99615.31;;;14.27;65.04
77149;BME280;66122;47.130;16.844;2023-05-10T20:44:07;99626.31;;;14.23;65.20
77149;BME280;66122;47.130;16.844;2023-05-10T20:54:09;99624.72;;;14.07;66.98
77149;BME280;66122;47.130;16.844;2023-05-10T21:04:12;99630.28;;;14.04;67.04
77149;BME280;66122;47.130;16.844;2023-05-10T21:14:15;99622.16;;;13.93;66.69
77149;BME280;66122;47.130;16.844;2023-05-10T21:24:17;99622.59;;;13.75;68.44
77149;BME280;66122;47.130;16.844;2023-05-10T21:34:20;99612.59;;;13.65;68.70
77149;BME280;66122;47.130;16.844;2023-05-10T21:44:22;99611.16;;;13.47;67.65
77149;BME280;66122;47.130;16.844;2023-05-10T21:54:25;99610.63;;;13.29;69.52
77149;BME280;66122;47.130;16.844;2023-05-10T22:04:27;99613.03;;;13.20;70.46
77149;BME280;66122;47.130;16.844;2023-05-10T22:14:30;99615.44;;;13.10;70.31
77149;BME280;66122;47.130;16.844;2023-05-10T22:24:32;99620.06;;;12.94;70.97
77149;BME280;66122;47.130;16.844;2023-05-10T22:34:35;99621.97;;;12.92;72.36
77149;BME280;66122;47.130;16.844;2023-05-10T22:44:37;99613.22;;;12.90;72.29
77149;BME280;66122;47.130;16.844;2023-05-10T22:54:40;99624.63;;;12.92;72.08
77149;BME280;66122;47.130;16.844;2023-05-10T23:04:42;99612.91;;;12.82;72.66
77149;BME280;66122;47.130;16.844;2023-05-10T23:14:45;99624.38;;;12.82;72.50
77149;BME280;66122;47.130;16.844;2023-05-10T23:24:48;99626.78;;;12.73;73.55
77149;BME280;66122;47.130;16.844;2023-05-10T23:34:51;99626.84;;;12.44;75.01
77149;BME280;66122;47.130;16.844;2023-05-10T23:44:54;99620.81;;;12.28;76.03
